Time;durP1;ratioP1;P1;durP2;ratioP2;P2;SDS_P1;SDS_P2;PMS_P1;PMS_P2;Temp;Humidity;BMP_temperature;BMP_pressure;BME280_temperature;BME280_humidity;BME280_pressure;Samples;Min_cycle;Max_cycle;Signal;HPM_P1;HPM_P2
2023/08/24 00:00:00;;;;;;;7.38;5.55;;;;;;;14.81;100.00;98820.22;4172955;28;20041;-72
2023/08/24 00:02:01;;;;;;;7.72;5.18;;;;;;;14.78;100.00;98813.47;4173051;28;20128;-72
2023/08/24 00:04:02;;;;;;;7.78;5.35;;;;;;;14.81;100.00;98809.91;4173378;28;20517;-72
2023/08/24 00:06:03;;;;;;;8.90;5.35;;;;;;;14.79;100.00;98817.06;4173061;28;20112;-72
2023/08/24 00:08:04;;;;;;;6.47;5.25;;;;;;;14.74;100.00;98812.69;4172545;28;20033;-72
2023/08/24 00:10:05;;;;;;;9.60;5.03;;;;;;;14.76;100.00;98810.28;4173366;28;20040;-72
2023/08/24 00:12:06;;;;;;;6.47;4.88;;;;;;;14.78;100.00;98812.69;4173426;28;20493;-72
2023/08/24 00:14:07;;;;;;;6.65;5.03;;;;;;;14.78;100.00;98812.69;4172475;28;20037;-72
2023/08/24 00:16:07;;;;;;;5.50;4.90;;;;;;;14.77;100.00;98817.44;4173630;28;20029;-72
2023/08/24 00:18:07;;;;;;;7.00;5.85;;;;;;;14.72;100.00;98814.25;4175786;28;20024;-72
2023/08/24 00:20:10;;;;;;;11.07;6.00;;;;;;;14.65;100.00;98811.50;4175955;28;20036;-72
2023/08/24 00:22:10;;;;;;;9.55;5.93;;;;;;;14.61;100.00;98811.47;4175945;28;20029;-72
2023/08/24 00:24:11;;;;;;;8.77;5.72;;;;;;;14.56;100.00;98809.06;4175479;28;20357;-72
2023/08/24 00:26:11;;;;;;;7.13;5.55;;;;;;;14.45;100.00;98814.63;4176694;28;20095;-72
2023/08/24 00:28:11;;;;;;;5.72;5.20;;;;;;;14.41;100.00;98818.59;4176753;28;20131;-72
2023/08/24 00:30:12;;;;;;;6.57;4.85;;;;;;;14.40;100.00;98811.41;4174663;28;20082;-72
2023/08/24 00:32:12;;;;;;;6.72;4.90;;;;;;;14.38;100.00;98806.25;4176341;28;20037;-72
2023/08/24 00:34:13;;;;;;;7.53;5.05;;;;;;;14.39;100.00;98807.84;4175760;28;20528;-72
2023/08/24 00:36:13;;;;;;;6.75;5.05;;;;;;;14.37;100.00;98804.66;4174343;28;20090;-72
2023/08/24 00:38:13;;;;;;;5.50;4.95;;;;;;;14.41;100.00;98811.03;4176218;28;20112;-72
2023/08/24 00:40:14;;;;;;;9.93;5.00;;;;;;;14.39;100.00;98805.06;4176100;28;20033;-72
2023/08/24 00:42:14;;;;;;;8.35;5.10;;;;;;;14.34;100.00;98800.69;4175944;28;20033;-72
2023/08/24 00:44:15;;;;;;;8.93;5.30;;;;;;;14.26;100.00;98799.09;4175713;28;20171;-72
2023/08/24 00:46:16;;;;;;;5.70;4.43;;;;;;;14.23;100.00;98801.84;4176673;28;20400;-72
2023/08/24 00:48:17;;;;;;;7.05;5.18;;;;;;;14.19;100.00;98801.06;4175774;28;20477;-72
2023/08/24 00:50:18;;;;;;;6.13;4.60;;;;;;;14.18;100.00;98797.47;4175610;28;20106;-72
2023/08/24 00:52:18;;;;;;;5.65;4.32;;;;;;;14.18;100.00;98797.47;4176012;28;20051;-72
2023/08/24 00:54:19;;;;;;;7.95;4.68;;;;;;;14.19;100.00;98795.50;4174824;28;20032;-72
2023/08/24 00:56:24;;;;;;;8.82;5.20;;;;;;;14.20;100.00;98789.53;4174451;28;20029;-72
2023/08/24 00:58:27;;;;;;;5.75;4.63;;;;;;;14.21;100.00;98793.09;4175701;28;20288;-72
2023/08/24 01:00:27;;;;;;;9.20;4.82;;;;;;;14.17;100.00;98783.97;4174507;28;20051;-72
2023/08/24 01:02:28;;;;;;;8.73;5.22;;;;;;;14.18;100.00;98791.13;4174706;28;20041;-72
2023/08/24 01:04:28;;;;;;;7.53;4.65;;;;;;;14.19;100.00;98784.34;4175313;28;20506;-72
2023/08/24 01:06:29;;;;;;;6.22;5.05;;;;;;;14.23;100.00;98782.38;4174362;28;20489;-72
2023/08/24 01:08:29;;;;;;;7.97;5.53;;;;;;;14.22;100.00;98778.78;4174796;28;20512;-72
2023/08/24 01:10:48;;;;;;;5.35;4.72;;;;;;;14.24;100.00;98778.41;4175338;28;20485;-72
2023/08/24 01:12:59;;;;;;;6.30;5.15;;;;;;;14.24;100.00;98779.22;4174609;28;20307;-72
2023/08/24 01:15:24;;;;;;;8.35;5.60;;;;;;;14.20;100.00;98791.50;4175682;28;20029;-72
2023/08/24 01:17:28;;;;;;;8.40;5.43;;;;;;;14.13;100.00;98783.16;4175010;28;20052;-72
2023/08/24 01:19:59;;;;;;;12.02;5.65;;;;;;;14.08;100.00;98780.75;4175479;28;20126;-72
2023/08/24 01:22:02;;;;;;;11.18;5.72;;;;;;;13.98;100.00;98779.53;4163193;28;20266;-72
2023/08/24 01:24:18;;;;;;;8.73;5.40;;;;;;;13.85;100.00;98778.31;4174346;28;20053;-73
2023/08/24 01:26:21;;;;;;;9.73;5.40;;;;;;;13.78;100.00;98782.66;4175501;28;20120;-72
2023/08/24 01:28:22;;;;;;;6.50;5.35;;;;;;;13.72;100.00;98781.44;4173986;28;20132;-72
2023/08/24 01:30:22;;;;;;;9.23;5.55;;;;;;;13.69;100.00;98784.22;4174174;28;20509;-72
2023/08/24 01:32:23;;;;;;;7.07;4.97;;;;;;;13.73;100.00;98782.22;4174921;28;20047;-72
2023/08/24 01:34:23;;;;;;;11.55;5.38;;;;;;;13.70;100.00;98780.25;4175025;28;20052;-72
2023/08/24 01:36:25;;;;;;;9.30;6.07;;;;;;;13.64;100.00;98767.91;4175066;28;20087;-72
2023/08/24 01:38:26;;;;;;;5.82;4.97;;;;;;;13.63;100.00;98778.22;4175156;28;20049;-72
2023/08/24 01:40:36;;;;;;;9.95;5.47;;;;;;;13.59;100.00;98773.84;4175191;28;20049;-72
2023/08/24 01:43:07;;;;;;;7.35;6.00;;;;;;;13.60;100.00;98773.47;4174539;28;20049;-72
2023/08/24 01:45:08;;;;;;;10.70;5.15;;;;;;;13.59;100.00;98766.31;4171967;28;20041;-72
2023/08/24 01:47:11;;;;;;;8.20;5.95;;;;;;;13.61;100.00;98771.47;4174879;28;20045;-72
2023/08/24 01:49:14;;;;;;;11.55;6.32;;;;;;;13.58;100.00;98770.28;4174954;28;20055;-72
2023/08/24 01:51:15;;;;;;;;;;;;;;;13.58;100.00;98773.06;4175421;28;20048;-72
2023/08/24 01:53:16;;;;;;;7.18;5.30;;;;;;;13.56;100.00;98767.06;4174416;28;19924;-72
2023/08/24 01:55:20;;;;;;;6.50;5.80;;;;;;;13.52;100.00;98765.47;4174781;28;20087;-72
2023/08/24 01:57:20;;;;;;;7.28;5.45;;;;;;;13.51;100.00;98769.44;4174082;28;20041;-72
2023/08/24 01:59:21;;;;;;;6.72;5.13;;;;;;;13.51;100.00;98761.09;4174401;28;20047;-72
2023/08/24 02:01:21;;;;;;;7.60;5.57;;;;;;;13.48;100.00;98766.25;4174955;28;20041;-72
2023/08/24 02:03:22;;;;;;;6.75;5.68;;;;;;;13.48;100.00;98762.66;4173860;28;20041;-72
2023/08/24 02:05:24;;;;;;;7.00;6.10;;;;;;;13.41;100.00;98754.31;4174435;28;20044;-72
2023/08/24 02:07:24;;;;;;;12.45;6.10;;;;;;;13.40;100.00;98750.72;4175073;28;20128;-72
2023/08/24 02:09:25;;;;;;;9.18;6.68;;;;;;;13.38;100.00;98753.09;4174715;28;20485;-72
2023/08/24 02:11:25;;;;;;;9.63;6.22;;;;;;;13.40;100.00;98742.38;4174798;28;20424;-72
2023/08/24 02:13:25;;;;;;;9.98;6.53;;;;;;;13.45;100.00;98746.78;4173887;28;20080;-72
2023/08/24 02:15:26;;;;;;;7.55;5.75;;;;;;;13.44;100.00;98743.22;4174463;28;20436;-72
2023/08/24 02:17:27;;;;;;;8.75;5.93;;;;;;;13.41;100.00;98746.78;4174811;28;20179;-72
2023/08/24 02:19:27;;;;;;;8.07;5.90;;;;;;;13.36;100.00;98749.13;4174060;28;20053;-72
2023/08/24 02:21:27;;;;;;;10.05;6.97;;;;;;;13.32;100.00;98754.69;4174476;28;20053;-72
2023/08/24 02:23:28;;;;;;;10.45;6.03;;;;;;;13.28;100.00;98753.06;4173782;28;20048;-72
2023/08/24 02:25:28;;;;;;;9.15;6.68;;;;;;;13.27;100.00;98754.25;4173096;28;20056;-72
2023/08/24 02:27:28;;;;;;;9.70;6.10;;;;;;;13.31;100.00;98755.84;4174402;28;20276;-72
2023/08/24 02:29:29;;;;;;;8.73;6.40;;;;;;;13.27;100.00;98749.47;4174159;28;20053;-72
2023/08/24 02:31:30;;;;;;;10.95;6.60;;;;;;;13.25;100.00;98751.06;4174241;28;20467;-72
2023/08/24 02:33:31;;;;;;;7.28;6.00;;;;;;;13.21;100.00;98760.16;4173149;28;20481;-72
2023/08/24 02:35:32;;;;;;;10.52;6.60;;;;;;;13.17;100.00;98755.75;4174532;28;20037;-72
2023/08/24 02:37:32;;;;;;;13.23;7.38;;;;;;;13.10;100.00;98750.94;4173936;28;20370;-72
2023/08/24 02:39:32;;;;;;;7.93;6.70;;;;;;;13.08;100.00;98755.31;4174453;28;20370;-72
2023/08/24 02:41:34;;;;;;;9.55;7.03;;;;;;;13.07;100.00;98748.13;4173861;28;20075;-72
2023/08/24 02:43:34;;;;;;;8.73;6.97;;;;;;;13.08;100.00;98755.31;4173359;28;20037;-72
2023/08/24 02:45:34;;;;;;;12.30;6.43;;;;;;;13.03;100.00;98748.13;4174873;28;20056;-72
2023/08/24 02:47:36;;;;;;;9.38;6.93;;;;;;;13.00;100.00;98748.91;4173379;28;20059;-72
2023/08/24 02:49:36;;;;;;;9.67;6.73;;;;;;;13.01;100.00;98746.94;4174424;28;20049;-72
2023/08/24 02:51:38;;;;;;;10.25;7.10;;;;;;;12.93;100.00;98741.34;4174345;28;20416;-72
2023/08/24 02:53:38;;;;;;;9.13;6.50;;;;;;;12.93;100.00;98744.09;4172989;28;20056;-72
2023/08/24 02:55:39;;;;;;;10.80;6.88;;;;;;;12.88;100.00;98747.25;4174329;28;20044;-72
2023/08/24 02:57:39;;;;;;;7.80;6.40;;;;;;;12.83;100.00;98735.72;4174103;28;20079;-72
2023/08/24 02:59:43;;;;;;;11.60;7.05;;;;;;;12.80;100.00;98742.03;4174350;28;20049;-72
2023/08/24 03:01:43;;;;;;;10.70;6.57;;;;;;;12.75;100.00;98743.19;4173081;28;20049;-72
2023/08/24 03:03:44;;;;;;;8.93;6.80;;;;;;;12.71;100.00;98738.78;4173611;28;20056;-72
2023/08/24 03:05:58;;;;;;;12.05;6.90;;;;;;;12.64;100.00;98750.63;4173566;28;20049;-72
2023/08/24 03:07:59;;;;;;;15.23;6.95;;;;;;;12.58;100.00;98735.53;4174175;28;20055;-72
2023/08/24 03:09:59;;;;;;;8.27;6.50;;;;;;;12.58;100.00;98738.31;4173470;28;20072;-72
2023/08/24 03:12:00;;;;;;;8.23;6.13;;;;;;;12.56;100.00;98744.22;4173494;28;20201;-72
2023/08/24 03:14:00;;;;;;;8.50;6.45;;;;;;;12.49;100.00;98741.41;4172543;28;20160;-72
2023/08/24 03:16:03;;;;;;;10.30;6.55;;;;;;;12.44;100.00;98741.75;4174182;28;20561;-72
2023/08/24 03:18:04;;;;;;;8.00;6.30;;;;;;;12.46;100.00;98744.94;4173166;28;20033;-72
2023/08/24 03:20:05;;;;;;;11.15;6.22;;;;;;;12.41;100.00;98730.63;4173224;28;20481;-72
2023/08/24 03:22:05;;;;;;;6.68;5.75;;;;;;;12.42;100.00;98735.00;4173964;28;20116;-72
2023/08/24 03:24:06;;;;;;;8.98;6.00;;;;;;;12.42;100.00;98746.13;4172927;28;20132;-72
2023/08/24 03:26:06;;;;;;;10.98;6.35;;;;;;;12.43;100.00;98733.84;4173272;28;20041;-72
2023/08/24 03:28:08;;;;;;;7.28;6.40;;;;;;;12.41;100.00;98741.72;4173640;28;20100;-72
2023/08/24 03:30:09;;;;;;;13.98;5.95;;;;;;;12.43;100.00;98754.06;4173633;28;20021;-72
2023/08/24 03:32:09;;;;;;;8.63;6.18;;;;;;;12.40;100.00;98734.59;4173038;28;20040;-72
2023/08/24 03:34:09;;;;;;;8.02;5.80;;;;;;;12.45;100.00;98739.78;4172819;28;20039;-72
2023/08/24 03:36:10;;;;;;;9.20;5.50;;;;;;;12.48;100.00;98733.47;4174139;28;20032;-72
2023/08/24 03:38:10;;;;;;;9.15;5.80;;;;;;;12.51;100.00;98741.03;4173192;28;20033;-72
2023/08/24 03:40:12;;;;;;;8.52;5.75;;;;;;;12.50;100.00;98734.69;4173023;28;20029;-72
2023/08/24 03:42:12;;;;;;;8.50;5.82;;;;;;;12.55;100.00;98734.31;4173453;28;20095;-72
2023/08/24 03:44:12;;;;;;;9.77;6.28;;;;;;;12.60;100.00;98736.75;4172640;28;20037;-72
2023/08/24 03:46:13;;;;;;;9.13;5.93;;;;;;;12.59;100.00;98743.47;4173496;28;20489;-72
2023/08/24 03:48:13;;;;;;;7.57;5.70;;;;;;;12.56;100.00;98738.69;4173834;28;20496;-72
2023/08/24 03:50:14;;;;;;;7.40;5.25;;;;;;;12.51;100.00;98738.25;4173569;28;20039;-72
2023/08/24 03:52:14;;;;;;;6.03;5.43;;;;;;;12.46;100.00;98738.59;4173526;28;20037;-72
2023/08/24 03:54:15;;;;;;;6.28;5.45;;;;;;;12.43;100.00;98744.94;4176570;28;20079;-72
2023/08/24 03:56:15;;;;;;;8.40;7.07;;;;;;;12.41;100.00;98745.28;4176961;28;20043;-72
2023/08/24 03:58:15;;;;;;;7.05;6.35;;;;;;;12.38;100.00;98738.53;4176724;28;20039;-72
2023/08/24 04:00:16;;;;;;;11.85;7.35;;;;;;;12.35;100.00;98744.88;4176382;28;20040;-72
2023/08/24 04:02:17;;;;;;;7.93;6.22;;;;;;;12.34;100.00;98740.50;4176337;28;20116;-72
2023/08/24 04:04:17;;;;;;;8.50;6.32;;;;;;;12.34;100.00;98746.06;4175123;28;20037;-72
2023/08/24 04:06:19;;;;;;;13.45;6.38;;;;;;;12.31;100.00;98746.00;4176523;28;20541;-72
2023/08/24 04:08:19;;;;;;;7.40;6.50;;;;;;;12.28;100.00;98744.81;4176669;28;20029;-72
2023/08/24 04:10:20;;;;;;;8.50;6.13;;;;;;;12.29;100.00;98746.38;4177095;28;20350;-72
2023/08/24 04:12:20;;;;;;;9.75;6.30;;;;;;;12.28;100.00;98730.13;4176726;28;20069;-72
2023/08/24 04:14:20;;;;;;;9.02;6.13;;;;;;;12.29;100.00;98746.38;4175715;28;20057;-72
2023/08/24 04:16:21;;;;;;;10.65;6.55;;;;;;;12.30;100.00;98749.97;4176256;28;20049;-72
2023/08/24 04:18:21;;;;;;;11.65;5.60;;;;;;;12.31;100.00;98746.00;4176918;28;20041;-72
2023/08/24 04:20:22;;;;;;;10.02;5.60;;;;;;;12.31;100.00;98752.34;4176116;28;20363;-72
2023/08/24 04:22:22;;;;;;;8.45;5.88;;;;;;;12.25;100.00;98753.09;4175867;28;20060;-72
2023/08/24 04:24:25;;;;;;;17.13;6.35;;;;;;;12.25;100.00;98761.44;4175849;28;20481;-72
2023/08/24 04:26:25;;;;;;;9.15;5.80;;;;;;;12.25;100.00;98750.31;4176154;28;20500;-72
2023/08/24 04:28:25;;;;;;;8.07;6.22;;;;;;;12.23;100.00;98764.56;4176486;28;20033;-72
2023/08/24 04:30:26;;;;;;;8.95;6.50;;;;;;;12.18;100.00;98759.38;4175338;28;20319;-72
2023/08/24 04:32:27;;;;;;;7.60;6.03;;;;;;;12.25;100.00;98765.00;4173142;28;20143;-72
2023/08/24 04:34:28;;;;;;;13.68;6.90;;;;;;;12.29;100.00;98765.00;4173617;28;20080;-72
2023/08/24 04:36:28;;;;;;;8.98;6.22;;;;;;;12.33;100.00;98766.66;4175668;28;20052;-74
2023/08/24 04:38:29;;;;;;;10.55;6.57;;;;;;;12.36;100.00;98754.78;4176245;28;20047;-72
2023/08/24 04:40:29;;;;;;;9.95;6.30;;;;;;;12.40;100.00;98754.00;4175362;28;20051;-72
2023/08/24 04:42:29;;;;;;;12.40;6.40;;;;;;;12.36;100.00;98757.56;4175607;28;20048;-72
2023/08/24 04:44:30;;;;;;;8.43;5.75;;;;;;;12.40;100.00;98763.13;4174797;28;20056;-72
2023/08/24 04:46:30;;;;;;;10.30;6.30;;;;;;;12.35;100.00;98750.41;4173297;28;20108;-72
2023/08/24 04:48:34;;;;;;;10.02;6.43;;;;;;;12.32;100.00;98748.38;4174878;28;20065;-72
2023/08/24 04:50:35;;;;;;;8.10;6.22;;;;;;;12.30;100.00;98753.53;4175031;28;20056;-72
2023/08/24 04:52:35;;;;;;;7.50;6.10;;;;;;;12.36;100.00;98749.22;4175025;28;20049;-72
2023/08/24 04:54:35;;;;;;;10.43;6.45;;;;;;;12.34;100.00;98753.56;4175349;28;20041;-72
2023/08/24 04:56:36;;;;;;;7.90;5.88;;;;;;;12.33;100.00;98750.00;4172780;28;20519;-72
2023/08/24 04:58:36;;;;;;;11.70;6.60;;;;;;;12.36;100.00;98746.47;4172887;28;20091;-72
2023/08/24 05:00:37;;;;;;;13.13;5.85;;;;;;;12.41;100.00;98744.50;4175209;28;20056;-73
2023/08/24 05:02:38;;;;;;;7.93;6.97;;;;;;;12.44;100.00;98752.06;4174000;28;20540;-73
2023/08/24 05:04:38;;;;;;;11.05;5.88;;;;;;;12.47;100.00;98742.97;4174808;28;20472;-73
2023/08/24 05:06:39;;;;;;;7.20;6.13;;;;;;;12.51;100.00;98744.59;4176120;28;20044;-73
2023/08/24 05:08:40;;;;;;;10.20;6.65;;;;;;;12.55;100.00;98747.41;4063464;28;20052;-73
2023/08/24 05:10:40;;;;;;;7.45;5.95;;;;;;;12.56;100.00;98738.69;4172421;28;20114;-73
2023/08/24 05:12:41;;;;;;;7.93;6.00;;;;;;;12.64;100.00;98750.63;4174964;28;20124;-73
2023/08/24 05:14:41;;;;;;;11.48;6.82;;;;;;;12.67;100.00;98738.78;4175677;28;20536;-73
2023/08/24 05:16:42;;;;;;;9.10;6.60;;;;;;;12.78;100.00;98747.97;4175359;28;20033;-73
2023/08/24 05:18:42;;;;;;;6.55;5.80;;;;;;;12.82;100.00;98751.56;4175934;28;20041;-73
2023/08/24 05:20:42;;;;;;;11.82;6.85;;;;;;;12.87;100.00;98753.97;4175385;28;20037;-73
2023/08/24 05:22:43;;;;;;;12.85;7.00;;;;;;;12.91;100.00;98757.59;4162490;28;20057;-73
2023/08/24 05:24:43;;;;;;;12.00;7.38;;;;;;;12.97;100.00;98763.56;4174523;28;20072;-73
2023/08/24 05:26:44;;;;;;;10.13;7.53;;;;;;;13.04;100.00;98757.25;4175636;28;20033;-73
2023/08/24 05:28:44;;;;;;;11.60;6.18;;;;;;;13.09;100.00;98752.13;4175309;28;20095;-73
2023/08/24 05:30:44;;;;;;;15.20;7.07;;;;;;;13.18;100.00;98757.34;4175188;28;20045;-73
2023/08/24 05:32:45;;;;;;;13.65;6.68;;;;;;;13.23;100.00;98747.84;4174212;28;20140;-73
2023/08/24 05:34:46;;;;;;;13.27;7.13;;;;;;;13.29;100.00;98733.22;4164767;28;20103;-72
2023/08/24 05:36:46;;;;;;;9.05;6.80;;;;;;;13.37;100.00;98725.69;4172854;28;20040;-72
2023/08/24 05:38:46;;;;;;;12.02;7.13;;;;;;;13.44;100.00;98732.09;4174391;28;20041;-72
2023/08/24 05:40:48;;;;;;;15.02;7.40;;;;;;;13.49;100.00;98734.50;4174591;28;20041;-72
2023/08/24 05:42:48;;;;;;;14.10;7.57;;;;;;;13.57;100.00;98735.34;4173431;28;20041;-72
2023/08/24 05:44:49;;;;;;;17.30;8.32;;;;;;;13.62;100.00;98721.03;4173839;28;20443;-72
2023/08/24 05:46:49;;;;;;;17.25;7.97;;;;;;;13.68;100.00;98718.69;4168971;28;20579;-72
2023/08/24 05:48:49;;;;;;;13.32;8.25;;;;;;;13.72;100.00;98728.59;4172382;28;20481;-72
2023/08/24 05:50:50;;;;;;;10.23;7.50;;;;;;;13.76;100.00;98736.97;4173988;28;20044;-72
2023/08/24 05:52:50;;;;;;;14.18;7.47;;;;;;;13.82;100.00;98737.38;4173374;28;20102;-72
2023/08/24 05:54:51;;;;;;;12.93;7.13;;;;;;;13.86;100.00;98738.19;4173325;28;20053;-72
2023/08/24 05:56:51;;;;;;;8.52;7.05;;;;;;;13.93;100.00;98735.44;4173594;28;20064;-72
2023/08/24 05:58:51;;;;;;;11.35;7.82;;;;;;;13.98;100.00;98733.06;4174028;28;20041;-72
2023/08/24 06:00:58;;;;;;;13.18;7.32;;;;;;;14.04;100.00;98731.47;4173943;28;20453;-72
2023/08/24 06:02:59;;;;;;;11.00;7.00;;;;;;;14.12;100.00;98720.34;4171305;28;20088;-72
2023/08/24 06:04:59;;;;;;;15.65;7.40;;;;;;;14.19;100.00;98723.13;4172550;28;20146;-72
2023/08/24 06:07:00;;;;;;;9.57;6.82;;;;;;;14.27;100.00;98717.19;4174320;28;20047;-72
2023/08/24 06:09:00;;;;;;;16.98;8.50;;;;;;;14.35;100.00;98709.63;4174803;28;20033;-72
2023/08/24 06:11:00;;;;;;;12.45;8.23;;;;;;;14.41;100.00;98721.97;4173893;28;20389;-72
2023/08/24 06:13:01;;;;;;;25.40;9.68;;;;;;;14.51;100.00;98729.53;4166154;28;20037;-72
2023/08/24 06:15:04;;;;;;;14.18;9.93;;;;;;;14.59;100.00;98736.69;4173969;28;20099;-72
2023/08/24 06:17:04;;;;;;;17.77;10.10;;;;;;;14.67;100.00;98737.50;4168398;28;21927;-72
2023/08/24 06:19:05;;;;;;;18.10;10.10;;;;;;;14.75;100.00;98744.66;4169429;28;20082;-74
2023/08/24 06:21:05;;;;;;;14.88;9.27;;;;;;;14.83;100.00;98737.88;4172024;28;20389;-72
2023/08/24 06:23:07;;;;;;;9.43;7.88;;;;;;;14.91;100.00;98744.22;4172570;28;20055;-72
2023/08/24 06:25:08;;;;;;;13.52;9.02;;;;;;;15.00;100.00;98741.81;4172412;28;20469;-72
2023/08/24 06:27:09;;;;;;;14.18;8.10;;;;;;;15.10;100.00;98740.22;4204243;28;20043;-72
2023/08/24 06:29:09;;;;;;;12.52;8.25;;;;;;;15.26;100.00;98746.13;4172727;28;20658;-72
2023/08/24 06:31:10;;;;;;;10.00;7.88;;;;;;;15.34;100.00;98746.91;4172689;28;20041;-72
2023/08/24 06:33:13;;;;;;;14.50;8.63;;;;;;;15.43;100.00;98747.28;4172117;28;20045;-72
2023/08/24 06:35:14;;;;;;;11.93;9.10;;;;;;;15.51;100.00;98743.25;4171983;28;20073;-72
2023/08/24 06:37:15;;;;;;;10.07;8.02;;;;;;;15.66;100.00;98739.25;4173120;28;20065;-72
2023/08/24 06:39:15;;;;;;;10.05;8.60;;;;;;;15.84;100.00;98739.16;4171171;28;20127;-72
2023/08/24 06:41:15;;;;;;;13.43;9.05;;;;;;;15.97;100.00;98745.03;4172354;28;20053;-72
2023/08/24 06:43:16;;;;;;;9.50;7.40;;;;;;;16.06;100.00;98748.19;4172045;28;20041;-72
2023/08/24 06:45:18;;;;;;;12.70;8.20;;;;;;;16.12;100.00;98748.53;4174232;28;20147;-72
2023/08/24 06:47:18;;;;;;;15.55;9.23;;;;;;;16.16;100.00;98746.53;4169244;28;20053;-72
2023/08/24 06:49:19;;;;;;;9.85;8.15;;;;;;;16.19;100.00;98742.91;4169319;28;20376;-72
2023/08/24 06:51:20;;;;;;;9.05;7.15;;;;;;;16.19;100.00;98752.09;4168322;28;20053;-72
2023/08/24 06:53:20;;;;;;;9.57;7.65;;;;;;;16.21;100.00;98748.88;4171168;28;20045;-72
2023/08/24 06:55:21;;;;;;;12.10;8.52;;;;;;;16.34;100.00;98749.19;4171304;28;20371;-72
2023/08/24 06:57:22;;;;;;;11.23;8.60;;;;;;;16.45;100.00;98747.09;4172252;28;20051;-72
2023/08/24 06:59:22;;;;;;;10.38;8.10;;;;;;;16.58;100.00;98745.41;4172458;28;20056;-72
2023/08/24 07:01:22;;;;;;;10.25;7.60;;;;;;;16.69;100.00;98734.97;4173025;28;20045;-72
2023/08/24 07:03:24;;;;;;;10.02;7.65;;;;;;;16.81;100.00;98742.84;4171906;28;20231;-72
2023/08/24 07:05:24;;;;;;;11.52;8.23;;;;;;;16.94;100.00;98734.72;4172673;28;20429;-72
2023/08/24 07:07:25;;;;;;;8.13;7.32;;;;;;;17.04;100.00;98733.03;4172670;28;20048;-72
2023/08/24 07:09:27;;;;;;;10.98;8.10;;;;;;;17.20;100.00;98727.66;4171848;28;20135;-72
2023/08/24 07:11:27;;;;;;;10.65;7.10;;;;;;;17.36;100.00;98721.50;4172391;28;20051;-72
2023/08/24 07:13:28;;;;;;;7.80;7.00;;;;;;;17.56;100.00;98721.66;4172466;28;20053;-72
2023/08/24 07:15:28;;;;;;;11.43;6.50;;;;;;;17.73;100.00;98729.06;4171994;28;20092;-73
2023/08/24 07:17:29;;;;;;;7.22;5.95;;;;;;;17.77;100.00;98715.81;4170851;28;20341;-73
2023/08/24 07:19:29;;;;;;;11.45;6.00;;;;;;;17.90;100.00;98718.84;4172628;28;20037;-73
2023/08/24 07:21:30;;;;;;;6.07;5.50;;;;;;;17.95;100.00;98721.16;4172142;28;20128;-73
2023/08/24 07:23:30;;;;;;;6.90;5.15;;;;;;;17.98;100.00;98719.53;4171575;28;20114;-73
2023/08/24 07:25:31;;;;;;;6.78;5.10;;;;;;;18.02;100.00;98731.47;4171885;28;20124;-73
2023/08/24 07:27:32;;;;;;;5.70;5.03;;;;;;;18.08;100.00;98735.38;4171573;28;20047;-73
2023/08/24 07:29:32;;;;;;;6.18;5.65;;;;;;;18.13;100.00;98737.72;4172408;28;20068;-73
2023/08/24 07:31:33;;;;;;;6.00;5.40;;;;;;;18.16;100.00;98732.06;4172144;28;20055;-73
2023/08/24 07:33:33;;;;;;;12.50;5.60;;;;;;;18.22;100.00;98727.56;4171803;28;20060;-73
2023/08/24 07:35:34;;;;;;;9.13;6.28;;;;;;;18.34;100.00;98719.78;4171313;28;20477;-73
2023/08/24 07:37:34;;;;;;;7.97;6.40;;;;;;;18.50;100.00;98731.91;4167528;28;20046;-73
2023/08/24 07:39:34;;;;;;;7.93;5.85;;;;;;;18.62;100.00;98724.94;4163662;28;20041;-73
2023/08/24 07:41:35;;;;;;;6.88;5.53;;;;;;;18.67;100.00;98721.66;4166288;28;20044;-73
2023/08/24 07:43:35;;;;;;;7.65;6.75;;;;;;;18.79;100.00;98723.88;4167619;28;20535;-73
2023/08/24 07:45:35;;;;;;;8.02;6.35;;;;;;;18.87;100.00;98730.13;4167723;28;20481;-73
2023/08/24 07:47:36;;;;;;;7.80;6.05;;;;;;;18.93;100.00;98722.78;4167343;28;20045;-73
2023/08/24 07:49:36;;;;;;;7.40;5.95;;;;;;;19.00;100.00;98721.88;4166559;28;20138;-73
2023/08/24 07:51:37;;;;;;;6.45;5.13;;;;;;;19.12;100.00;98726.88;4172553;28;20047;-73
2023/08/24 07:53:37;;;;;;;7.43;6.25;;;;;;;19.17;100.00;98731.97;4168990;28;20439;-73
2023/08/24 07:55:37;;;;;;;12.88;6.10;;;;;;;19.33;100.00;98731.25;4165009;28;20444;-72
2023/08/24 07:57:38;;;;;;;7.13;6.47;;;;;;;19.46;100.00;98720.19;4164982;28;21939;-73
2023/08/24 07:59:38;;;;;;;7.80;5.65;;;;;;;19.60;100.00;98728.34;4161712;28;20049;-73
2023/08/24 08:01:39;;;;;;;10.18;5.70;;;;;;;19.73;100.00;98729.28;4164000;28;20060;-73
2023/08/24 08:03:39;;;;;;;7.10;5.40;;;;;;;19.80;100.00;98726.31;4169911;28;20576;-73
2023/08/24 08:05:40;;;;;;;7.40;5.13;;;;;;;19.81;100.00;98727.91;4172221;28;20136;-73
2023/08/24 08:07:41;;;;;;;5.35;4.82;;;;;;;19.80;100.00;98719.91;4172547;28;20079;-73
2023/08/24 08:09:42;;;;;;;7.63;5.07;;;;;;;19.80;100.00;98720.69;4173521;28;20075;-73
2023/08/24 08:11:43;;;;;;;5.55;4.72;;;;;;;19.83;100.00;98719.03;4166967;28;20048;-73
2023/08/24 08:13:43;;;;;;;6.53;5.63;;;;;;;19.92;100.00;98722.03;4164838;28;20053;-73
2023/08/24 08:15:44;;;;;;;9.65;5.28;;;;;;;19.98;100.00;98722.31;4165278;28;20708;-72
2023/08/24 08:17:44;;;;;;;7.10;4.65;;;;;;;19.97;100.00;98712.31;4167358;28;20041;-73
2023/08/24 08:19:44;;;;;;;5.28;4.57;;;;;;;19.96;100.00;98714.34;4165295;28;20529;-73
2023/08/24 08:21:45;;;;;;;8.63;5.00;;;;;;;19.90;100.00;98710.44;4172018;28;20040;-73
2023/08/24 08:23:46;;;;;;;7.05;5.38;;;;;;;19.90;100.00;98704.84;4172516;28;20047;-73
2023/08/24 08:25:46;;;;;;;5.72;4.93;;;;;;;19.86;100.00;98710.53;4164553;28;20041;-73
2023/08/24 08:27:47;;;;;;;5.32;4.80;;;;;;;19.87;100.00;98714.94;4172221;28;20097;-72
2023/08/24 08:29:47;;;;;;;7.45;4.75;;;;;;;19.85;100.00;98714.56;4172976;28;20052;-73
2023/08/24 08:31:48;;;;;;;5.53;4.75;;;;;;;19.83;100.00;98707.81;4172800;28;20520;-73
2023/08/24 08:33:49;;;;;;;5.15;4.63;;;;;;;19.81;100.00;98711.03;4172677;28;20036;-73
2023/08/24 08:35:49;;;;;;;5.10;4.60;;;;;;;19.77;100.00;98710.31;4172638;28;20424;-73
2023/08/24 08:37:50;;;;;;;7.55;4.68;;;;;;;19.77;100.00;98707.50;4166763;28;20471;-73
2023/08/24 08:39:50;;;;;;;6.15;4.70;;;;;;;19.76;100.00;98705.94;4165556;28;20378;-73
2023/08/24 08:41:50;;;;;;;6.80;5.30;;;;;;;19.76;100.00;98696.72;4167841;28;20047;-73
2023/08/24 08:43:51;;;;;;;10.45;6.10;;;;;;;19.79;100.00;98688.25;4164826;28;20116;-73
2023/08/24 08:45:53;;;;;;;8.95;5.50;;;;;;;19.83;100.00;98679.72;4168507;28;20041;-73
2023/08/24 08:47:57;;;;;;;8.38;5.93;;;;;;;19.86;100.00;98662.03;4165409;28;20114;-73
2023/08/24 08:49:58;;;;;;;6.85;4.97;;;;;;;19.90;100.00;98660.69;4167731;28;20136;-73
2023/08/24 08:51:58;;;;;;;7.05;5.38;;;;;;;19.93;100.00;98659.03;4172987;28;20083;-73
2023/08/24 08:54:00;;;;;;;5.25;4.72;;;;;;;19.97;100.00;98659.75;4167325;28;20048;-73
2023/08/24 08:56:04;;;;;;;5.63;4.63;;;;;;;19.99;100.00;98645.25;4167866;28;20051;-73
2023/08/24 08:58:05;;;;;;;9.38;5.70;;;;;;;20.01;100.00;98640.78;4166731;28;20520;-73
2023/08/24 09:00:09;;;;;;;8.50;5.28;;;;;;;20.00;100.00;98635.59;4170343;28;20029;-73
2023/08/24 09:02:15;;;;;;;9.13;6.20;;;;;;;20.06;100.00;98642.28;4167571;28;20147;-73
2023/08/24 09:04:16;;;;;;;7.93;5.60;;;;;;;20.10;100.00;98649.38;4165604;28;20068;-73
2023/08/24 09:06:17;;;;;;;12.23;6.63;;;;;;;20.16;100.00;98639.22;4167083;28;20595;-73
2023/08/24 09:08:18;;;;;;;9.13;6.30;;;;;;;20.28;100.00;98636.94;4167540;28;20047;-73
2023/08/24 09:10:18;;;;;;;6.70;5.60;;;;;;;20.38;100.00;98631.06;4173025;28;20140;-73
2023/08/24 09:12:19;;;;;;;10.40;5.93;;;;;;;20.50;100.00;98628.78;4175550;28;20036;-73
2023/08/24 09:14:19;;;;;;;7.10;5.25;;;;;;;20.58;100.00;98616.91;4175356;28;20090;-73
2023/08/24 09:16:20;;;;;;;6.55;5.53;;;;;;;20.67;100.00;98616.28;4176010;28;20475;-73
2023/08/24 09:18:21;;;;;;;11.13;5.70;;;;;;;20.75;100.00;98604.38;4173817;28;20049;-73
2023/08/24 09:20:21;;;;;;;12.15;5.70;;;;;;;20.83;100.00;98595.75;4175684;28;20136;-73